sensor_id;sensor_type;location;lat;lon;timestamp;P1;durP1;ratioP1;P2;durP2;ratioP2
21681;SDS011;11002;48.256;10.084;2022-11-15T00:00:12;2.67;;;2.30;;
21681;SDS011;11002;48.256;10.084;2022-11-15T00:02:58;2.88;;;2.00;;
21681;SDS011;11002;48.256;10.084;2022-11-15T00:05:44;2.95;;;2.10;;
21681;SDS011;11002;48.256;10.084;2022-11-15T00:08:31;2.45;;;1.92;;
21681;SDS011;11002;48.256;10.084;2022-11-15T00:11:18;1.90;;;1.60;;
21681;SDS011;11002;48.256;10.084;2022-11-15T00:14:04;2.05;;;1.67;;
21681;SDS011;11002;48.256;10.084;2022-11-15T00:16:50;2.00;;;1.80;;
21681;SDS011;11002;48.256;10.084;2022-11-15T00:19:36;2.45;;;1.80;;
21681;SDS011;11002;48.256;10.084;2022-11-15T00:22:21;1.98;;;1.77;;
21681;SDS011;11002;48.256;10.084;2022-11-15T00:25:08;2.38;;;1.92;;
21681;SDS011;11002;48.256;10.084;2022-11-15T00:27:55;2.47;;;2.05;;
21681;SDS011;11002;48.256;10.084;2022-11-15T00:30:41;2.42;;;2.17;;
21681;SDS011;11002;48.256;10.084;2022-11-15T00:33:27;3.15;;;2.38;;
21681;SDS011;11002;48.256;10.084;2022-11-15T00:36:13;2.92;;;1.90;;
21681;SDS011;11002;48.256;10.084;2022-11-15T00:38:58;2.10;;;1.90;;
21681;SDS011;11002;48.256;10.084;2022-11-15T00:41:46;2.33;;;1.77;;
21681;SDS011;11002;48.256;10.084;2022-11-15T00:44:32;2.13;;;1.80;;
21681;SDS011;11002;48.256;10.084;2022-11-15T00:47:18;2.05;;;1.70;;
21681;SDS011;11002;48.256;10.084;2022-11-15T00:50:04;2.10;;;1.90;;
21681;SDS011;11002;48.256;10.084;2022-11-15T00:52:50;2.78;;;2.13;;
21681;SDS011;11002;48.256;10.084;2022-11-15T00:55:36;2.15;;;1.90;;
21681;SDS011;11002;48.256;10.084;2022-11-15T00:58:23;2.22;;;1.73;;
21681;SDS011;11002;48.256;10.084;2022-11-15T01:01:10;2.53;;;1.98;;
21681;SDS011;11002;48.256;10.084;2022-11-15T01:03:57;2.35;;;2.13;;
21681;SDS011;11002;48.256;10.084;2022-11-15T01:06:43;2.22;;;1.70;;
21681;SDS011;11002;48.256;10.084;2022-11-15T01:09:29;2.15;;;1.95;;
21681;SDS011;11002;48.256;10.084;2022-11-15T01:12:14;2.33;;;2.10;;
21681;SDS011;11002;48.256;10.084;2022-11-15T01:15:02;2.58;;;2.20;;
21681;SDS011;11002;48.256;10.084;2022-11-15T01:17:48;2.13;;;1.90;;
21681;SDS011;11002;48.256;10.084;2022-11-15T01:20:34;3.00;;;2.10;;
21681;SDS011;11002;48.256;10.084;2022-11-15T01:23:25;2.22;;;2.00;;
21681;SDS011;11002;48.256;10.084;2022-11-15T01:26:11;3.58;;;1.80;;
21681;SDS011;11002;48.256;10.084;2022-11-15T01:28:58;3.13;;;2.10;;
21681;SDS011;11002;48.256;10.084;2022-11-15T01:31:45;2.22;;;1.90;;
21681;SDS011;11002;48.256;10.084;2022-11-15T01:34:31;1.58;;;1.48;;
21681;SDS011;11002;48.256;10.084;2022-11-15T01:37:17;2.47;;;2.05;;
21681;SDS011;11002;48.256;10.084;2022-11-15T01:40:03;2.58;;;1.95;;
21681;SDS011;11002;48.256;10.084;2022-11-15T01:42:49;2.67;;;1.85;;
21681;SDS011;11002;48.256;10.084;2022-11-15T01:45:35;2.30;;;1.92;;
21681;SDS011;11002;48.256;10.084;2022-11-15T01:48:22;1.85;;;1.73;;
21681;SDS011;11002;48.256;10.084;2022-11-15T01:51:12;2.22;;;2.00;;
21681;SDS011;11002;48.256;10.084;2022-11-15T01:54:02;2.33;;;2.00;;
21681;SDS011;11002;48.256;10.084;2022-11-15T01:56:53;2.03;;;1.85;;
21681;SDS011;11002;48.256;10.084;2022-11-15T01:59:43;2.30;;;2.08;;
21681;SDS011;11002;48.256;10.084;2022-11-15T02:02:30;2.58;;;2.10;;
21681;SDS011;11002;48.256;10.084;2022-11-15T02:05:17;2.38;;;1.92;;
21681;SDS011;11002;48.256;10.084;2022-11-15T02:08:03;2.13;;;1.73;;
21681;SDS011;11002;48.256;10.084;2022-11-15T02:10:50;1.75;;;1.65;;
21681;SDS011;11002;48.256;10.084;2022-11-15T02:13:36;2.58;;;1.95;;
21681;SDS011;11002;48.256;10.084;2022-11-15T02:16:25;2.13;;;1.92;;
21681;SDS011;11002;48.256;10.084;2022-11-15T02:19:22;2.47;;;1.88;;
21681;SDS011;11002;48.256;10.084;2022-11-15T02:22:29;1.73;;;1.60;;
21681;SDS011;11002;48.256;10.084;2022-11-15T02:25:33;2.53;;;1.65;;
21681;SDS011;11002;48.256;10.084;2022-11-15T02:28:40;2.65;;;2.20;;
21681;SDS011;11002;48.256;10.084;2022-11-15T02:31:35;2.13;;;1.52;;
21681;SDS011;11002;48.256;10.084;2022-11-15T02:34:26;1.98;;;1.63;;
21681;SDS011;11002;48.256;10.084;2022-11-15T02:37:20;2.33;;;1.80;;
21681;SDS011;11002;48.256;10.084;2022-11-15T02:40:13;2.10;;;1.90;;
21681;SDS011;11002;48.256;10.084;2022-11-15T02:43:08;2.03;;;1.83;;
21681;SDS011;11002;48.256;10.084;2022-11-15T02:46:17;2.47;;;1.80;;
21681;SDS011;11002;48.256;10.084;2022-11-15T02:49:07;1.90;;;1.70;;
21681;SDS011;11002;48.256;10.084;2022-11-15T02:51:53;2.05;;;1.83;;
21681;SDS011;11002;48.256;10.084;2022-11-15T02:54:41;2.60;;;1.83;;
21681;SDS011;11002;48.256;10.084;2022-11-15T02:57:29;2.33;;;1.80;;
21681;SDS011;11002;48.256;10.084;2022-11-15T03:00:23;2.05;;;1.80;;
21681;SDS011;11002;48.256;10.084;2022-11-15T03:03:13;2.50;;;1.85;;
21681;SDS011;11002;48.256;10.084;2022-11-15T03:06:18;1.83;;;1.70;;
21681;SDS011;11002;48.256;10.084;2022-11-15T03:09:13;1.83;;;1.70;;
21681;SDS011;11002;48.256;10.084;2022-11-15T03:12:10;3.08;;;2.03;;
21681;SDS011;11002;48.256;10.084;2022-11-15T03:15:04;2.08;;;1.48;;
21681;SDS011;11002;48.256;10.084;2022-11-15T03:17:55;2.83;;;1.98;;
21681;SDS011;11002;48.256;10.084;2022-11-15T03:20:45;2.08;;;1.80;;
21681;SDS011;11002;48.256;10.084;2022-11-15T03:23:34;2.28;;;1.70;;
21681;SDS011;11002;48.256;10.084;2022-11-15T03:26:23;2.17;;;1.73;;
21681;SDS011;11002;48.256;10.084;2022-11-15T03:29:12;1.58;;;1.38;;
21681;SDS011;11002;48.256;10.084;2022-11-15T03:32:00;2.42;;;1.75;;
21681;SDS011;11002;48.256;10.084;2022-11-15T03:34:51;1.95;;;1.80;;
21681;SDS011;11002;48.256;10.084;2022-11-15T03:37:41;1.95;;;1.75;;
21681;SDS011;11002;48.256;10.084;2022-11-15T03:40:35;1.77;;;1.65;;
21681;SDS011;11002;48.256;10.084;2022-11-15T03:43:27;1.60;;;1.50;;
21681;SDS011;11002;48.256;10.084;2022-11-15T03:46:19;3.10;;;2.10;;
21681;SDS011;11002;48.256;10.084;2022-11-15T03:49:10;1.92;;;1.73;;
21681;SDS011;11002;48.256;10.084;2022-11-15T03:52:00;1.58;;;1.48;;
21681;SDS011;11002;48.256;10.084;2022-11-15T03:54:49;2.28;;;1.80;;
21681;SDS011;11002;48.256;10.084;2022-11-15T03:57:38;2.28;;;1.55;;
21681;SDS011;11002;48.256;10.084;2022-11-15T04:00:24;1.92;;;1.70;;
21681;SDS011;11002;48.256;10.084;2022-11-15T04:03:10;2.22;;;2.05;;
21681;SDS011;11002;48.256;10.084;2022-11-15T04:05:56;1.80;;;1.65;;
21681;SDS011;11002;48.256;10.084;2022-11-15T04:08:42;1.77;;;1.65;;
21681;SDS011;11002;48.256;10.084;2022-11-15T04:11:28;1.98;;;1.80;;
21681;SDS011;11002;48.256;10.084;2022-11-15T04:14:15;2.10;;;1.80;;
21681;SDS011;11002;48.256;10.084;2022-11-15T04:17:00;2.00;;;1.55;;
21681;SDS011;11002;48.256;10.084;2022-11-15T04:19:46;1.50;;;1.40;;
21681;SDS011;11002;48.256;10.084;2022-11-15T04:22:51;2.53;;;1.80;;
21681;SDS011;11002;48.256;10.084;2022-11-15T04:25:56;1.73;;;1.45;;
21681;SDS011;11002;48.256;10.084;2022-11-15T04:28:45;6.80;;;1.45;;
21681;SDS011;11002;48.256;10.084;2022-11-15T04:31:46;2.40;;;1.95;;
21681;SDS011;11002;48.256;10.084;2022-11-15T04:34:31;2.72;;;1.73;;
21681;SDS011;11002;48.256;10.084;2022-11-15T04:37:18;1.70;;;1.60;;
21681;SDS011;11002;48.256;10.084;2022-11-15T04:40:04;1.52;;;1.42;;
21681;SDS011;11002;48.256;10.084;2022-11-15T04:42:51;3.42;;;1.58;;
21681;SDS011;11002;48.256;10.084;2022-11-15T04:45:37;2.10;;;1.90;;
21681;SDS011;11002;48.256;10.084;2022-11-15T04:48:24;1.95;;;1.40;;
21681;SDS011;11002;48.256;10.084;2022-11-15T04:51:10;1.70;;;1.50;;
21681;SDS011;11002;48.256;10.084;2022-11-15T04:53:56;1.75;;;1.65;;
21681;SDS011;11002;48.256;10.084;2022-11-15T04:56:42;1.73;;;1.60;;
21681;SDS011;11002;48.256;10.084;2022-11-15T04:59:28;2.10;;;1.70;;
21681;SDS011;11002;48.256;10.084;2022-11-15T05:02:14;1.63;;;1.52;;
21681;SDS011;11002;48.256;10.084;2022-11-15T05:05:01;2.03;;;1.83;;
21681;SDS011;11002;48.256;10.084;2022-11-15T05:07:45;2.40;;;1.40;;
21681;SDS011;11002;48.256;10.084;2022-11-15T05:10:32;2.15;;;1.70;;
21681;SDS011;11002;48.256;10.084;2022-11-15T05:13:17;1.77;;;1.58;;
21681;SDS011;11002;48.256;10.084;2022-11-15T05:16:03;1.60;;;1.50;;
21681;SDS011;11002;48.256;10.084;2022-11-15T05:18:50;2.20;;;1.63;;
21681;SDS011;11002;48.256;10.084;2022-11-15T05:21:38;1.70;;;1.60;;
21681;SDS011;11002;48.256;10.084;2022-11-15T05:24:24;2.13;;;1.67;;
21681;SDS011;11002;48.256;10.084;2022-11-15T05:27:09;1.85;;;1.67;;
21681;SDS011;11002;48.256;10.084;2022-11-15T05:29:55;1.90;;;1.75;;
21681;SDS011;11002;48.256;10.084;2022-11-15T05:32:42;2.00;;;1.58;;
21681;SDS011;11002;48.256;10.084;2022-11-15T05:35:29;2.05;;;1.50;;
21681;SDS011;11002;48.256;10.084;2022-11-15T05:38:19;1.73;;;1.60;;
21681;SDS011;11002;48.256;10.084;2022-11-15T05:41:06;2.00;;;1.45;;
21681;SDS011;11002;48.256;10.084;2022-11-15T05:43:52;1.50;;;1.40;;
21681;SDS011;11002;48.256;10.084;2022-11-15T05:46:38;1.58;;;1.48;;
21681;SDS011;11002;48.256;10.084;2022-11-15T05:49:26;1.63;;;1.45;;
21681;SDS011;11002;48.256;10.084;2022-11-15T05:52:16;1.50;;;1.40;;
21681;SDS011;11002;48.256;10.084;2022-11-15T05:55:07;1.88;;;1.63;;
21681;SDS011;11002;48.256;10.084;2022-11-15T05:57:54;1.85;;;1.60;;
21681;SDS011;11002;48.256;10.084;2022-11-15T06:00:40;1.50;;;1.40;;
21681;SDS011;11002;48.256;10.084;2022-11-15T06:03:26;1.55;;;1.45;;
21681;SDS011;11002;48.256;10.084;2022-11-15T06:06:12;1.98;;;1.35;;
21681;SDS011;11002;48.256;10.084;2022-11-15T06:08:58;1.58;;;1.48;;
21681;SDS011;11002;48.256;10.084;2022-11-15T06:11:45;2.13;;;1.75;;
21681;SDS011;11002;48.256;10.084;2022-11-15T06:14:31;1.30;;;1.20;;
21681;SDS011;11002;48.256;10.084;2022-11-15T06:17:17;1.73;;;1.35;;
21681;SDS011;11002;48.256;10.084;2022-11-15T06:20:03;1.30;;;1.20;;
21681;SDS011;11002;48.256;10.084;2022-11-15T06:22:49;1.60;;;1.50;;
21681;SDS011;11002;48.256;10.084;2022-11-15T06:25:35;1.63;;;1.52;;
21681;SDS011;11002;48.256;10.084;2022-11-15T06:28:22;1.70;;;1.60;;
21681;SDS011;11002;48.256;10.084;2022-11-15T06:31:09;1.60;;;1.20;;
21681;SDS011;11002;48.256;10.084;2022-11-15T06:33:56;2.67;;;1.60;;
21681;SDS011;11002;48.256;10.084;2022-11-15T06:36:41;1.85;;;1.40;;
21681;SDS011;11002;48.256;10.084;2022-11-15T06:39:27;1.98;;;1.40;;
21681;SDS011;11002;48.256;10.084;2022-11-15T06:42:13;1.60;;;1.50;;
21681;SDS011;11002;48.256;10.084;2022-11-15T06:45:01;1.50;;;1.33;;
21681;SDS011;11002;48.256;10.084;2022-11-15T06:47:48;1.33;;;1.23;;
21681;SDS011;11002;48.256;10.084;2022-11-15T06:50:34;1.98;;;1.58;;
21681;SDS011;11002;48.256;10.084;2022-11-15T06:53:19;1.70;;;1.60;;
21681;SDS011;11002;48.256;10.084;2022-11-15T06:56:06;1.67;;;1.58;;
21681;SDS011;11002;48.256;10.084;2022-11-15T06:58:52;1.13;;;1.02;;
21681;SDS011;11002;48.256;10.084;2022-11-15T07:01:40;1.83;;;1.30;;
21681;SDS011;11002;48.256;10.084;2022-11-15T07:04:25;1.35;;;1.25;;
21681;SDS011;11002;48.256;10.084;2022-11-15T07:07:15;1.42;;;1.33;;
21681;SDS011;11002;48.256;10.084;2022-11-15T07:10:01;1.58;;;1.48;;
21681;SDS011;11002;48.256;10.084;2022-11-15T07:12:47;1.73;;;1.40;;
21681;SDS011;11002;48.256;10.084;2022-11-15T07:15:33;1.40;;;1.30;;
21681;SDS011;11002;48.256;10.084;2022-11-15T07:18:20;1.38;;;1.27;;
21681;SDS011;11002;48.256;10.084;2022-11-15T07:21:07;1.55;;;1.45;;
21681;SDS011;11002;48.256;10.084;2022-11-15T07:23:54;1.75;;;1.40;;
21681;SDS011;11002;48.256;10.084;2022-11-15T07:26:40;2.40;;;1.77;;
21681;SDS011;11002;48.256;10.084;2022-11-15T07:29:26;1.80;;;1.63;;
21681;SDS011;11002;48.256;10.084;2022-11-15T07:32:12;1.73;;;1.35;;
21681;SDS011;11002;48.256;10.084;2022-11-15T07:34:59;1.63;;;1.50;;
21681;SDS011;11002;48.256;10.084;2022-11-15T07:37:52;2.00;;;1.80;;
21681;SDS011;11002;48.256;10.084;2022-11-15T07:40:38;1.88;;;1.70;;
21681;SDS011;11002;48.256;10.084;2022-11-15T07:43:24;1.70;;;1.60;;
21681;SDS011;11002;48.256;10.084;2022-11-15T07:46:11;2.30;;;1.98;;
21681;SDS011;11002;48.256;10.084;2022-11-15T07:48:57;1.98;;;1.60;;
21681;SDS011;11002;48.256;10.084;2022-11-15T07:51:45;1.92;;;1.73;;
21681;SDS011;11002;48.256;10.084;2022-11-15T07:54:30;3.45;;;1.90;;
21681;SDS011;11002;48.256;10.084;2022-11-15T07:57:17;1.90;;;1.65;;
21681;SDS011;11002;48.256;10.084;2022-11-15T08:00:03;1.77;;;1.63;;
21681;SDS011;11002;48.256;10.084;2022-11-15T08:02:49;2.72;;;2.00;;
21681;SDS011;11002;48.256;10.084;2022-11-15T08:05:35;3.47;;;1.92;;
21681;SDS011;11002;48.256;10.084;2022-11-15T08:08:23;2.40;;;1.95;;
21681;SDS011;11002;48.256;10.084;2022-11-15T08:11:09;2.30;;;1.92;;
21681;SDS011;11002;48.256;10.084;2022-11-15T08:13:55;2.70;;;2.00;;
21681;SDS011;11002;48.256;10.084;2022-11-15T08:16:40;2.78;;;1.98;;
21681;SDS011;11002;48.256;10.084;2022-11-15T08:19:26;2.22;;;1.70;;
21681;SDS011;11002;48.256;10.084;2022-11-15T08:22:12;1.83;;;1.60;;
21681;SDS011;11002;48.256;10.084;2022-11-15T08:24:59;1.80;;;1.70;;
21681;SDS011;11002;48.256;10.084;2022-11-15T08:27:45;1.98;;;1.77;;
21681;SDS011;11002;48.256;10.084;2022-11-15T08:30:34;2.97;;;1.90;;
21681;SDS011;11002;48.256;10.084;2022-11-15T08:33:21;2.63;;;1.73;;
21681;SDS011;11002;48.256;10.084;2022-11-15T08:36:10;1.80;;;1.70;;
21681;SDS011;11002;48.256;10.084;2022-11-15T08:38:58;2.35;;;1.60;;
21681;SDS011;11002;48.256;10.084;2022-11-15T08:41:45;1.88;;;1.77;;
21681;SDS011;11002;48.256;10.084;2022-11-15T08:44:31;2.28;;;1.90;;
21681;SDS011;11002;48.256;10.084;2022-11-15T08:47:17;1.70;;;1.60;;
21681;SDS011;11002;48.256;10.084;2022-11-15T08:50:03;1.95;;;1.75;;
21681;SDS011;11002;48.256;10.084;2022-11-15T08:52:49;1.83;;;1.48;;
21681;SDS011;11002;48.256;10.084;2022-11-15T08:55:35;2.17;;;1.80;;
21681;SDS011;11002;48.256;10.084;2022-11-15T08:58:24;1.92;;;1.60;;
21681;SDS011;11002;48.256;10.084;2022-11-15T09:01:14;1.92;;;1.73;;
21681;SDS011;11002;48.256;10.084;2022-11-15T09:04:01;2.33;;;1.85;;
21681;SDS011;11002;48.256;10.084;2022-11-15T09:06:48;2.03;;;1.60;;
21681;SDS011;11002;48.256;10.084;2022-11-15T09:09:33;1.88;;;1.70;;
21681;SDS011;11002;48.256;10.084;2022-11-15T09:12:19;2.45;;;1.80;;
21681;SDS011;11002;48.256;10.084;2022-11-15T09:15:07;1.50;;;1.27;;
21681;SDS011;11002;48.256;10.084;2022-11-15T09:17:53;1.52;;;1.42;;
21681;SDS011;11002;48.256;10.084;2022-11-15T09:20:42;1.70;;;1.58;;
21681;SDS011;11002;48.256;10.084;2022-11-15T09:23:28;2.53;;;2.13;;
21681;SDS011;11002;48.256;10.084;2022-11-15T09:26:13;1.73;;;1.63;;
21681;SDS011;11002;48.256;10.084;2022-11-15T09:29:00;1.60;;;1.48;;
21681;SDS011;11002;48.256;10.084;2022-11-15T09:31:47;1.73;;;1.40;;
21681;SDS011;11002;48.256;10.084;2022-11-15T09:34:33;1.88;;;1.73;;
21681;SDS011;11002;48.256;10.084;2022-11-15T09:37:19;2.55;;;1.90;;
21681;SDS011;11002;48.256;10.084;2022-11-15T09:40:06;1.67;;;1.58;;
21681;SDS011;11002;48.256;10.084;2022-11-15T09:42:58;2.13;;;1.83;;
21681;SDS011;11002;48.256;10.084;2022-11-15T09:45:55;1.60;;;1.50;;
21681;SDS011;11002;48.256;10.084;2022-11-15T09:48:55;1.92;;;1.42;;
21681;SDS011;11002;48.256;10.084;2022-11-15T09:51:28;2.25;;;1.55;;
21681;SDS011;11002;48.256;10.084;2022-11-15T09:53:58;1.50;;;1.40;;
21681;SDS011;11002;48.256;10.084;2022-11-15T09:56:31;1.97;;;1.77;;
21681;SDS011;11002;48.256;10.084;2022-11-15T09:59:04;1.45;;;1.35;;
21681;SDS011;11002;48.256;10.084;2022-11-15T10:01:43;1.90;;;1.73;;
21681;SDS011;11002;48.256;10.084;2022-11-15T10:04:28;1.83;;;1.40;;
21681;SDS011;11002;48.256;10.084;2022-11-15T10:06:58;1.40;;;1.30;;
21681;SDS011;11002;48.256;10.084;2022-11-15T10:09:31;1.77;;;1.67;;
21681;SDS011;11002;48.256;10.084;2022-11-15T10:12:06;2.20;;;1.90;;
21681;SDS011;11002;48.256;10.084;2022-11-15T10:14:35;1.65;;;1.40;;
21681;SDS011;11002;48.256;10.084;2022-11-15T10:20:05;1.55;;;1.45;;
21681;SDS011;11002;48.256;10.084;2022-11-15T10:22:39;1.70;;;1.50;;
21681;SDS011;11002;48.256;10.084;2022-11-15T10:25:13;1.40;;;1.30;;
21681;SDS011;11002;48.256;10.084;2022-11-15T10:27:45;1.58;;;1.45;;
21681;SDS011;11002;48.256;10.084;2022-11-15T10:30:18;2.38;;;1.60;;
21681;SDS011;11002;48.256;10.084;2022-11-15T10:32:46;1.67;;;1.58;;
21681;SDS011;11002;48.256;10.084;2022-11-15T10:35:23;1.70;;;1.45;;
21681;SDS011;11002;48.256;10.084;2022-11-15T10:37:52;1.63;;;1.52;;
21681;SDS011;11002;48.256;10.084;2022-11-15T10:40:32;1.70;;;1.40;;
21681;SDS011;11002;48.256;10.084;2022-11-15T10:43:04;1.92;;;1.45;;
21681;SDS011;11002;48.256;10.084;2022-11-15T10:45:39;1.80;;;1.70;;
21681;SDS011;11002;48.256;10.084;2022-11-15T10:48:25;1.98;;;1.77;;
21681;SDS011;11002;48.256;10.084;2022-11-15T10:50:54;1.63;;;1.33;;
21681;SDS011;11002;48.256;10.084;2022-11-15T10:53:29;1.83;;;1.40;;
21681;SDS011;11002;48.256;10.084;2022-11-15T10:56:03;1.75;;;1.50;;
21681;SDS011;11002;48.256;10.084;2022-11-15T10:58:35;1.52;;;1.42;;
21681;SDS011;11002;48.256;10.084;2022-11-15T11:01:12;3.08;;;1.50;;
21681;SDS011;11002;48.256;10.084;2022-11-15T11:03:42;1.52;;;1.42;;
21681;SDS011;11002;48.256;10.084;2022-11-15T11:06:13;1.83;;;1.50;;
21681;SDS011;11002;48.256;10.084;2022-11-15T11:08:53;1.58;;;1.45;;
21681;SDS011;11002;48.256;10.084;2022-11-15T11:11:22;1.27;;;1.17;;
21681;SDS011;11002;48.256;10.084;2022-11-15T11:13:49;1.55;;;1.45;;
21681;SDS011;11002;48.256;10.084;2022-11-15T11:16:22;2.15;;;1.60;;
21681;SDS011;11002;48.256;10.084;2022-11-15T11:19:13;1.52;;;1.42;;
21681;SDS011;11002;48.256;10.084;2022-11-15T11:21:51;1.65;;;1.55;;
21681;SDS011;11002;48.256;10.084;2022-11-15T11:24:26;2.30;;;1.92;;
21681;SDS011;11002;48.256;10.084;2022-11-15T11:29:38;1.45;;;1.35;;
21681;SDS011;11002;48.256;10.084;2022-11-15T11:35:22;1.42;;;1.17;;
21681;SDS011;11002;48.256;10.084;2022-11-15T11:37:58;2.10;;;1.60;;
21681;SDS011;11002;48.256;10.084;2022-11-15T11:40:36;1.45;;;1.23;;
21681;SDS011;11002;48.256;10.084;2022-11-15T11:43:13;1.60;;;1.17;;
21681;SDS011;11002;48.256;10.084;2022-11-15T11:45:58;1.60;;;1.50;;
21681;SDS011;11002;48.256;10.084;2022-11-15T11:48:40;1.73;;;1.45;;
21681;SDS011;11002;48.256;10.084;2022-11-15T11:51:11;1.27;;;1.17;;
21681;SDS011;11002;48.256;10.084;2022-11-15T11:53:47;1.35;;;1.25;;
21681;SDS011;11002;48.256;10.084;2022-11-15T11:56:23;1.52;;;1.35;;
21681;SDS011;11002;48.256;10.084;2022-11-15T11:58:55;1.52;;;1.42;;
21681;SDS011;11002;48.256;10.084;2022-11-15T12:01:29;1.50;;;1.33;;
21681;SDS011;11002;48.256;10.084;2022-11-15T12:04:03;1.55;;;1.42;;
21681;SDS011;11002;48.256;10.084;2022-11-15T12:06:36;1.50;;;1.27;;
21681;SDS011;11002;48.256;10.084;2022-11-15T12:09:14;1.60;;;1.50;;
21681;SDS011;11002;48.256;10.084;2022-11-15T12:11:47;1.20;;;1.10;;
21681;SDS011;11002;48.256;10.084;2022-11-15T12:14:22;1.30;;;1.20;;
21681;SDS011;11002;48.256;10.084;2022-11-15T12:16:54;1.40;;;1.30;;
21681;SDS011;11002;48.256;10.084;2022-11-15T12:19:21;1.40;;;1.30;;
21681;SDS011;11002;48.256;10.084;2022-11-15T12:21:50;2.00;;;1.40;;
21681;SDS011;11002;48.256;10.084;2022-11-15T12:24:24;1.50;;;1.20;;
21681;SDS011;11002;48.256;10.084;2022-11-15T12:26:57;1.90;;;1.60;;
21681;SDS011;11002;48.256;10.084;2022-11-15T12:29:28;1.65;;;1.33;;
21681;SDS011;11002;48.256;10.084;2022-11-15T12:32:02;1.40;;;1.30;;
21681;SDS011;11002;48.256;10.084;2022-11-15T12:34:40;1.33;;;1.23;;
21681;SDS011;11002;48.256;10.084;2022-11-15T12:40:19;1.45;;;1.02;;
21681;SDS011;11002;48.256;10.084;2022-11-15T12:46:05;1.95;;;1.38;;
21681;SDS011;11002;48.256;10.084;2022-11-15T12:48:48;1.70;;;1.10;;
21681;SDS011;11002;48.256;10.084;2022-11-15T12:51:19;1.35;;;1.25;;
21681;SDS011;11002;48.256;10.084;2022-11-15T12:53:47;1.52;;;1.20;;
21681;SDS011;11002;48.256;10.084;2022-11-15T12:56:20;1.35;;;1.25;;
21681;SDS011;11002;48.256;10.084;2022-11-15T12:58:50;1.77;;;1.50;;
21681;SDS011;11002;48.256;10.084;2022-11-15T13:04:23;1.48;;;1.20;;
21681;SDS011;11002;48.256;10.084;2022-11-15T13:06:53;1.20;;;1.10;;
21681;SDS011;11002;48.256;10.084;2022-11-15T13:15:37;1.58;;;1.20;;
21681;SDS011;11002;48.256;10.084;2022-11-15T13:18:25;1.40;;;1.30;;
21681;SDS011;11002;48.256;10.084;2022-11-15T13:20:55;1.60;;;1.25;;
21681;SDS011;11002;48.256;10.084;2022-11-15T13:23:23;1.33;;;1.23;;
21681;SDS011;11002;48.256;10.084;2022-11-15T13:26:00;2.72;;;1.15;;
21681;SDS011;11002;48.256;10.084;2022-11-15T13:28:48;1.33;;;1.23;;
21681;SDS011;11002;48.256;10.084;2022-11-15T13:31:27;1.00;;;0.95;;
21681;SDS011;11002;48.256;10.084;2022-11-15T13:34:00;1.30;;;1.20;;
21681;SDS011;11002;48.256;10.084;2022-11-15T13:36:30;1.40;;;1.20;;
21681;SDS011;11002;48.256;10.084;2022-11-15T13:39:01;1.45;;;1.08;;
21681;SDS011;11002;48.256;10.084;2022-11-15T13:41:31;1.55;;;1.20;;
21681;SDS011;11002;48.256;10.084;2022-11-15T13:44:01;1.98;;;1.30;;
21681;SDS011;11002;48.256;10.084;2022-11-15T13:46:29;1.60;;;1.10;;
21681;SDS011;11002;48.256;10.084;2022-11-15T13:48:59;1.35;;;1.25;;
21681;SDS011;11002;48.256;10.084;2022-11-15T13:51:30;1.50;;;1.40;;
21681;SDS011;11002;48.256;10.084;2022-11-15T13:54:02;2.63;;;1.23;;
21681;SDS011;11002;48.256;10.084;2022-11-15T13:56:41;2.00;;;1.20;;
21681;SDS011;11002;48.256;10.084;2022-11-15T13:59:15;1.30;;;1.20;;
21681;SDS011;11002;48.256;10.084;2022-11-15T14:01:47;1.25;;;1.15;;
21681;SDS011;11002;48.256;10.084;2022-11-15T14:04:18;1.30;;;1.20;;
21681;SDS011;11002;48.256;10.084;2022-11-15T14:06:47;1.45;;;1.20;;
21681;SDS011;11002;48.256;10.084;2022-11-15T14:09:25;1.42;;;1.33;;
21681;SDS011;11002;48.256;10.084;2022-11-15T14:11:58;1.17;;;1.00;;
21681;SDS011;11002;48.256;10.084;2022-11-15T14:14:28;1.20;;;1.10;;
21681;SDS011;11002;48.256;10.084;2022-11-15T14:16:56;1.90;;;1.30;;
21681;SDS011;11002;48.256;10.084;2022-11-15T14:19:35;1.02;;;0.93;;
21681;SDS011;11002;48.256;10.084;2022-11-15T14:22:15;1.70;;;1.10;;
21681;SDS011;11002;48.256;10.084;2022-11-15T14:24:46;1.10;;;1.00;;
21681;SDS011;11002;48.256;10.084;2022-11-15T14:27:29;1.30;;;1.20;;
21681;SDS011;11002;48.256;10.084;2022-11-15T14:29:58;0.90;;;0.90;;
21681;SDS011;11002;48.256;10.084;2022-11-15T14:32:26;0.80;;;0.80;;
21681;SDS011;11002;48.256;10.084;2022-11-15T14:34:56;1.50;;;1.00;;
21681;SDS011;11002;48.256;10.084;2022-11-15T14:37:24;1.40;;;1.30;;
21681;SDS011;11002;48.256;10.084;2022-11-15T14:39:53;1.30;;;1.20;;
21681;SDS011;11002;48.256;10.084;2022-11-15T14:42:21;1.13;;;1.02;;
21681;SDS011;11002;48.256;10.084;2022-11-15T14:44:49;1.15;;;1.05;;
21681;SDS011;11002;48.256;10.084;2022-11-15T14:47:18;1.25;;;1.10;;
21681;SDS011;11002;48.256;10.084;2022-11-15T14:49:46;2.45;;;1.20;;
21681;SDS011;11002;48.256;10.084;2022-11-15T14:52:22;1.23;;;1.10;;
21681;SDS011;11002;48.256;10.084;2022-11-15T14:54:50;1.30;;;1.20;;
21681;SDS011;11002;48.256;10.084;2022-11-15T14:57:18;1.30;;;1.20;;
21681;SDS011;11002;48.256;10.084;2022-11-15T14:59:46;1.10;;;1.00;;
21681;SDS011;11002;48.256;10.084;2022-11-15T15:02:15;1.10;;;1.00;;
21681;SDS011;11002;48.256;10.084;2022-11-15T15:04:46;1.45;;;1.35;;
21681;SDS011;11002;48.256;10.084;2022-11-15T15:07:14;1.05;;;1.05;;
21681;SDS011;11002;48.256;10.084;2022-11-15T15:09:42;1.33;;;1.13;;
21681;SDS011;11002;48.256;10.084;2022-11-15T15:12:14;1.38;;;1.02;;
21681;SDS011;11002;48.256;10.084;2022-11-15T15:14:44;1.00;;;1.00;;
21681;SDS011;11002;48.256;10.084;2022-11-15T15:17:12;1.00;;;0.98;;
21681;SDS011;11002;48.256;10.084;2022-11-15T15:19:39;1.15;;;1.05;;
21681;SDS011;11002;48.256;10.084;2022-11-15T15:22:10;1.30;;;1.20;;
21681;SDS011;11002;48.256;10.084;2022-11-15T15:24:40;0.73;;;0.73;;
21681;SDS011;11002;48.256;10.084;2022-11-15T15:27:08;1.70;;;1.10;;
21681;SDS011;11002;48.256;10.084;2022-11-15T15:29:36;1.02;;;1.00;;
21681;SDS011;11002;48.256;10.084;2022-11-15T15:32:03;1.25;;;1.00;;
21681;SDS011;11002;48.256;10.084;2022-11-15T15:34:31;1.20;;;1.10;;
21681;SDS011;11002;48.256;10.084;2022-11-15T15:37:11;1.60;;;1.10;;
21681;SDS011;11002;48.256;10.084;2022-11-15T15:39:49;1.02;;;1.02;;
21681;SDS011;11002;48.256;10.084;2022-11-15T15:42:17;2.15;;;0.98;;
21681;SDS011;11002;48.256;10.084;2022-11-15T15:44:45;1.13;;;1.00;;
21681;SDS011;11002;48.256;10.084;2022-11-15T15:47:12;0.93;;;0.90;;
21681;SDS011;11002;48.256;10.084;2022-11-15T15:49:42;1.00;;;0.90;;
21681;SDS011;11002;48.256;10.084;2022-11-15T15:52:11;1.77;;;1.38;;
21681;SDS011;11002;48.256;10.084;2022-11-15T15:54:39;1.70;;;1.30;;
21681;SDS011;11002;48.256;10.084;2022-11-15T15:57:07;1.20;;;0.95;;
21681;SDS011;11002;48.256;10.084;2022-11-15T15:59:37;1.77;;;1.20;;
21681;SDS011;11002;48.256;10.084;2022-11-15T16:02:05;1.75;;;1.33;;
21681;SDS011;11002;48.256;10.084;2022-11-15T16:04:35;2.83;;;1.33;;
21681;SDS011;11002;48.256;10.084;2022-11-15T16:07:02;1.35;;;1.23;;
21681;SDS011;11002;48.256;10.084;2022-11-15T16:09:31;1.33;;;1.10;;
21681;SDS011;11002;48.256;10.084;2022-11-15T16:12:15;1.67;;;1.10;;
21681;SDS011;11002;48.256;10.084;2022-11-15T16:14:43;2.65;;;1.27;;
21681;SDS011;11002;48.256;10.084;2022-11-15T16:17:10;1.67;;;1.33;;
21681;SDS011;11002;48.256;10.084;2022-11-15T16:19:43;2.00;;;0.95;;
21681;SDS011;11002;48.256;10.084;2022-11-15T16:22:11;1.48;;;1.20;;